createdAt,value
2022-11-14T00:00:11.892Z,8.23
2022-11-14T00:05:32.613Z,8.63
2022-11-14T00:10:53.260Z,8.25
2022-11-14T00:16:16.974Z,7.75
2022-11-14T00:21:37.004Z,7.95
2022-11-14T00:26:58.145Z,8.50
2022-11-14T00:32:18.559Z,8.15
2022-11-14T00:37:38.779Z,8.15
2022-11-14T00:42:59.313Z,7.88
2022-11-14T00:48:19.406Z,7.38
2022-11-14T00:53:39.833Z,7.93
2022-11-14T00:59:00.419Z,8.65
2022-11-14T01:04:20.750Z,8.80
2022-11-14T01:09:41.129Z,8.13
2022-11-14T01:15:01.458Z,8.70
2022-11-14T01:20:21.842Z,8.70
2022-11-14T01:25:43.301Z,8.65
2022-11-14T01:31:14.205Z,7.90
2022-11-14T01:36:34.423Z,8.27
2022-11-14T01:41:55.991Z,8.70
2022-11-14T01:47:30.888Z,9.98
2022-11-14T01:52:51.189Z,8.50
2022-11-14T01:58:13.133Z,7.85
2022-11-14T02:03:37.967Z,8.13
2022-11-14T02:09:01.368Z,8.75
2022-11-14T02:14:21.846Z,8.43
2022-11-14T02:20:02.254Z,7.93
2022-11-14T02:25:26.318Z,7.25
2022-11-14T02:30:46.626Z,9.25
2022-11-14T02:36:07.505Z,7.53
2022-11-14T02:41:27.760Z,8.50
2022-11-14T02:46:48.142Z,9.23
2022-11-14T02:52:08.549Z,8.88
2022-11-14T02:57:28.619Z,8.77
2022-11-14T03:02:49.100Z,8.32
2022-11-14T03:08:09.195Z,9.48
2022-11-14T03:13:32.742Z,8.15
2022-11-14T03:18:53.453Z,9.93
2022-11-14T03:24:13.715Z,8.48
2022-11-14T03:29:34.336Z,9.25
2022-11-14T03:34:54.637Z,9.43
2022-11-14T03:40:14.717Z,8.55
2022-11-14T03:45:37.543Z,9.60
2022-11-14T03:50:58.525Z,9.48
2022-11-14T03:56:18.945Z,9.00
2022-11-14T04:01:39.503Z,8.70
2022-11-14T04:06:59.969Z,8.82
2022-11-14T04:12:20.220Z,9.23
2022-11-14T04:17:40.914Z,9.07
2022-11-14T04:23:01.076Z,7.70
2022-11-14T04:28:21.390Z,8.90
2022-11-14T04:33:41.714Z,8.88
2022-11-14T04:39:02.242Z,8.98
2022-11-14T04:44:22.653Z,9.10
2022-11-14T04:49:42.958Z,9.73
2022-11-14T04:55:03.514Z,8.80
2022-11-14T05:00:25.022Z,8.80
2022-11-14T05:05:45.691Z,8.73
2022-11-14T05:11:06.652Z,8.07
2022-11-14T05:16:26.981Z,8.45
2022-11-14T05:21:47.380Z,8.90
2022-11-14T05:27:07.673Z,8.57
2022-11-14T05:32:28.161Z,8.60
2022-11-14T05:37:48.491Z,8.60
2022-11-14T05:43:09.286Z,8.35
2022-11-14T05:48:31.024Z,9.43
2022-11-14T05:53:52.507Z,9.75
2022-11-14T05:59:13.184Z,9.18
2022-11-14T06:04:33.840Z,9.60
2022-11-14T06:09:54.338Z,10.27
2022-11-14T06:15:15.396Z,10.23
2022-11-14T06:20:37.165Z,10.05
2022-11-14T06:26:02.405Z,9.68
2022-11-14T06:31:24.442Z,9.82
2022-11-14T06:36:44.702Z,9.75
2022-11-14T06:42:05.245Z,10.18
2022-11-14T06:47:25.685Z,10.75
2022-11-14T06:52:45.858Z,10.32
2022-11-14T06:58:06.138Z,11.63
2022-11-14T07:03:26.654Z,9.93
2022-11-14T07:08:47.680Z,11.50
2022-11-14T07:14:09.784Z,9.95
2022-11-14T07:19:30.431Z,11.30
2022-11-14T07:24:50.916Z,9.52
2022-11-14T07:30:12.264Z,10.82
2022-11-14T07:35:32.299Z,9.77
2022-11-14T07:40:59.967Z,9.52
2022-11-14T07:46:20.949Z,9.25
2022-11-14T07:51:41.427Z,10.90
2022-11-14T07:57:01.781Z,9.90
2022-11-14T08:02:21.958Z,9.30
2022-11-14T08:07:42.990Z,8.73
2022-11-14T08:18:46.291Z,8.30
2022-11-14T08:24:06.885Z,9.25
2022-11-14T08:29:27.220Z,8.57
2022-11-14T08:34:48.196Z,9.10
2022-11-14T08:40:11.129Z,9.13
2022-11-14T08:45:31.535Z,9.13
2022-11-14T08:50:52.086Z,8.65
2022-11-14T08:56:12.437Z,8.98
2022-11-14T09:01:33.175Z,7.93
2022-11-14T09:06:53.718Z,8.77
2022-11-14T09:12:14.292Z,9.15
2022-11-14T09:17:35.410Z,8.80
2022-11-14T09:22:58.948Z,8.57
2022-11-14T09:28:19.447Z,8.13
2022-11-14T09:33:40.529Z,9.30
2022-11-14T09:39:01.140Z,8.30
2022-11-14T09:44:21.689Z,8.57
2022-11-14T09:49:45.637Z,8.15
2022-11-14T09:55:17.644Z,8.13
2022-11-14T10:01:07.895Z,8.57
2022-11-14T10:06:35.305Z,7.00
2022-11-14T10:12:41.106Z,7.60
2022-11-14T10:18:23.760Z,8.75
2022-11-14T10:24:18.456Z,8.15
2022-11-14T10:29:44.974Z,8.02
2022-11-14T10:35:24.590Z,7.90
2022-11-14T10:40:48.460Z,8.20
2022-11-14T10:46:19.855Z,8.95
2022-11-14T10:51:47.052Z,8.02
2022-11-14T10:57:22.493Z,7.75
2022-11-14T11:02:54.862Z,9.57
2022-11-14T11:08:43.801Z,8.55
2022-11-14T11:14:05.189Z,9.10
2022-11-14T11:19:27.709Z,8.75
2022-11-14T11:24:48.198Z,9.02
2022-11-14T11:30:26.484Z,8.85
2022-11-14T11:35:50.529Z,8.10
2022-11-14T11:41:42.413Z,8.70
2022-11-14T11:47:05.027Z,8.68
2022-11-14T11:52:44.467Z,9.23
2022-11-14T11:58:12.105Z,9.40
2022-11-14T12:03:32.508Z,7.95
2022-11-14T12:09:06.824Z,8.10
2022-11-14T12:14:29.879Z,7.30
2022-11-14T12:20:02.334Z,8.88
2022-11-14T12:25:35.289Z,9.13
2022-11-14T12:31:03.725Z,8.98
2022-11-14T12:36:30.482Z,8.50
2022-11-14T12:41:50.851Z,8.65
2022-11-14T12:47:20.331Z,9.55
2022-11-14T12:52:40.768Z,8.35
2022-11-14T12:58:32.861Z,8.70
2022-11-14T13:04:16.088Z,9.63
2022-11-14T13:10:14.076Z,8.20
2022-11-14T13:16:06.041Z,10.80
2022-11-14T13:21:46.246Z,8.85
2022-11-14T13:28:06.015Z,9.63
2022-11-14T13:33:43.056Z,10.23
2022-11-14T13:39:07.057Z,9.43
2022-11-14T13:44:33.400Z,8.85
2022-11-14T13:50:14.450Z,9.63
2022-11-14T13:55:55.103Z,10.02
2022-11-14T14:01:28.317Z,9.48
2022-11-14T14:06:54.712Z,10.02
2022-11-14T14:12:24.159Z,9.35
2022-11-14T14:17:56.785Z,9.70
2022-11-14T14:23:29.381Z,9.00
2022-11-14T14:29:06.313Z,9.30
2022-11-14T14:34:32.122Z,8.27
2022-11-14T14:40:35.721Z,7.80
2022-11-14T14:45:56.462Z,10.32
2022-11-14T14:51:30.610Z,9.68
2022-11-14T14:57:03.585Z,10.50
2022-11-14T15:02:26.064Z,9.45
2022-11-14T15:07:49.584Z,10.30
2022-11-14T15:13:15.928Z,9.50
2022-11-14T15:18:37.780Z,11.82
2022-11-14T15:24:19.898Z,10.50
2022-11-14T15:29:53.390Z,9.20
2022-11-14T15:35:24.940Z,10.60
2022-11-14T15:41:10.747Z,10.00
2022-11-14T15:46:40.822Z,12.30
2022-11-14T15:52:03.817Z,10.07
2022-11-14T15:57:24.656Z,11.10
2022-11-14T16:02:49.635Z,11.48
2022-11-14T16:08:14.152Z,11.80
2022-11-14T16:13:34.897Z,10.43
2022-11-14T16:18:55.455Z,12.73
2022-11-14T16:24:22.509Z,13.10
2022-11-14T16:29:42.876Z,12.07
2022-11-14T16:35:03.566Z,11.55
2022-11-14T16:40:27.873Z,12.32
2022-11-14T16:45:48.524Z,11.30
2022-11-14T16:51:33.007Z,11.13
2022-11-14T16:56:50.146Z,12.48
2022-11-14T17:02:21.073Z,12.05
2022-11-14T17:07:41.430Z,13.80
2022-11-14T17:13:01.745Z,13.93
2022-11-14T17:18:22.126Z,12.77
2022-11-14T17:23:42.329Z,11.40
2022-11-14T17:29:04.121Z,12.00
2022-11-14T17:34:24.699Z,11.98
2022-11-14T17:39:45.168Z,13.45
2022-11-14T17:45:05.983Z,12.00
2022-11-14T17:50:26.504Z,13.68
2022-11-14T17:55:47.143Z,12.95
2022-11-14T18:01:16.895Z,13.15
2022-11-14T18:06:37.206Z,12.68
2022-11-14T18:11:57.801Z,12.00
2022-11-14T18:17:18.679Z,12.63
2022-11-14T18:22:38.984Z,12.65
2022-11-14T18:27:59.240Z,14.32
2022-11-14T18:33:19.579Z,14.63
2022-11-14T18:38:41.264Z,12.85
2022-11-14T18:44:03.775Z,12.40
2022-11-14T18:49:24.307Z,13.93
2022-11-14T18:54:44.923Z,12.60
2022-11-14T19:00:05.981Z,14.75
2022-11-14T19:05:25.958Z,15.55
2022-11-14T19:10:46.784Z,15.15
2022-11-14T19:16:07.718Z,18.13
2022-11-14T19:21:28.912Z,15.32
2022-11-14T19:26:50.201Z,15.95
2022-11-14T19:32:10.223Z,14.00
2022-11-14T19:37:30.649Z,13.55
2022-11-14T19:42:53.824Z,14.35
2022-11-14T19:48:14.569Z,12.73
2022-11-14T19:53:36.915Z,12.63
2022-11-14T19:58:57.329Z,13.43
2022-11-14T20:04:17.584Z,13.48
2022-11-14T20:09:38.159Z,13.82
2022-11-14T20:14:58.803Z,14.80
2022-11-14T20:20:19.570Z,13.68
2022-11-14T20:25:40.582Z,13.57
2022-11-14T20:31:02.723Z,13.45
2022-11-14T20:36:26.118Z,13.15
2022-11-14T20:41:46.772Z,11.45
2022-11-14T20:47:10.977Z,12.23
2022-11-14T20:52:31.835Z,13.25
2022-11-14T20:57:52.417Z,13.13
2022-11-14T21:03:12.708Z,12.82
2022-11-14T21:08:34.911Z,13.32
2022-11-14T21:14:01.740Z,12.85
2022-11-14T21:19:22.841Z,13.63
2022-11-14T21:24:43.438Z,12.98
2022-11-14T21:30:04.323Z,14.10
2022-11-14T21:35:24.806Z,11.93
2022-11-14T21:40:54.431Z,12.75
2022-11-14T21:46:18.526Z,13.85
2022-11-14T21:51:39.085Z,13.57
2022-11-14T21:56:59.515Z,11.98
2022-11-14T22:02:38.180Z,12.00
2022-11-14T22:07:58.542Z,13.02
2022-11-14T22:13:19.043Z,11.20
2022-11-14T22:18:38.966Z,11.40
2022-11-14T22:23:59.618Z,12.10
2022-11-14T22:29:20.043Z,10.93
2022-11-14T22:34:40.294Z,10.27
2022-11-14T22:40:00.749Z,11.25
2022-11-14T22:45:21.427Z,9.77
2022-11-14T22:50:41.477Z,10.35
2022-11-14T22:56:02.916Z,12.43
2022-11-14T23:01:31.837Z,11.07
2022-11-14T23:06:52.020Z,10.27
2022-11-14T23:12:12.129Z,10.68
2022-11-14T23:17:32.650Z,10.55
2022-11-14T23:22:53.047Z,10.50
2022-11-14T23:28:13.360Z,9.90
2022-11-14T23:33:33.894Z,11.15
2022-11-14T23:38:55.349Z,10.18
2022-11-14T23:44:15.791Z,10.07
2022-11-14T23:49:35.873Z,11.38
2022-11-14T23:54:56.068Z,10.95
